.
WxDataArchive / Data Records for 2015-12-20
2015-12-19 December 2015 2015-12-21

Data Records for Sunday, 20 December 2015

Time	Temp	Chill	HIndex	Humid	Dewpt	 Wind 	HiWind	WindDir	Rain 	Barom
-----	----	-----	------	-----	-----	------	------	-------	-----	-----
00:00	21.9	21.9	21.9	73	14.6	0	0	---	0.00	30.458 
00:05	21.9	21.9	21.9	73	14.6	0	0	---	0.00	30.458 
00:10	21.9	21.9	21.9	73	14.6	0	0	---	0.00	30.458 
00:15	21.9	21.9	21.9	73	14.6	0	0	---	0.00	30.449 
00:20	21.9	21.9	21.9	73	14.6	0	0	---	0.00	30.449 
00:25	21.9	21.9	21.9	74	14.9	0	0	---	0.00	30.449 
00:30	21.9	21.9	21.9	74	14.9	0	0	---	0.00	30.439 
00:35	21.9	21.9	21.9	74	14.9	0	0	---	0.00	30.439 
00:40	21.8	21.8	21.8	74	14.8	0	0	---	0.00	30.439 
00:45	21.8	21.8	21.8	74	14.8	0	0	---	0.00	30.434 
00:50	21.8	21.8	21.8	74	14.8	0	0	---	0.00	30.434 
00:55	21.8	21.8	21.8	75	15.1	0	0	---	0.00	30.434 
01:00	21.8	21.8	21.8	75	15.1	0	0	---	0.00	30.433 
01:05	21.6	21.6	21.6	75	14.9	0	0	---	0.00	30.433 
01:10	21.6	21.6	21.6	75	14.9	0	0	---	0.00	30.433 
01:15	21.4	21.4	21.4	75	14.7	0	0	---	0.00	30.429 
01:20	21.4	21.4	21.4	75	14.7	0	0	---	0.00	30.429 
01:25	21.4	21.4	21.4	76	15.0	0	0	---	0.00	30.429 
01:30	21.4	21.4	21.4	76	15.0	0	0	---	0.00	30.421 
01:35	21.4	21.4	21.4	76	15.0	0	0	---	0.00	30.421 
01:40	21.4	21.4	21.4	76	15.0	0	0	---	0.00	30.421 
01:45	21.4	21.4	21.4	76	15.0	0	0	---	0.00	30.419 
01:50	21.6	21.6	21.6	77	15.5	0	0	---	0.00	30.419 
01:55	21.6	21.6	21.6	76	15.2	0	0	---	0.00	30.419 
02:00	21.8	21.8	21.8	76	15.4	0	0	---	0.00	30.419 
02:05	21.8	21.8	21.8	76	15.4	0	0	---	0.00	30.419 
02:10	21.9	21.9	21.9	76	15.5	0	0	---	0.00	30.419 
02:15	21.9	21.9	21.9	76	15.5	0	1	248	0.00	30.416 
02:20	22.1	22.1	22.1	76	15.7	0	0	---	0.00	30.416 
02:25	22.2	22.2	22.2	75	15.5	0	0	---	0.00	30.416 
02:30	22.4	22.4	22.4	75	15.7	0	0	---	0.00	30.413 
02:35	22.4	22.4	22.4	74	15.4	0	0	---	0.00	30.413 
02:40	22.4	22.4	22.4	74	15.4	0	0	---	0.00	30.413 
02:45	22.2	22.2	22.2	74	15.2	0	0	---	0.00	30.415 
02:50	22.2	22.2	22.2	74	15.2	0	0	---	0.00	30.415 
02:55	22.2	22.2	22.2	74	15.2	0	0	---	0.00	30.415 
03:00	22.2	22.2	22.2	74	15.2	0	0	---	0.00	30.415 
03:05	22.1	22.1	22.1	74	15.1	0	0	---	0.00	30.415 
03:10	22.1	22.1	22.1	74	15.1	0	0	---	0.00	30.415 
03:15	21.9	21.9	21.9	74	14.9	0	0	---	0.00	30.413 
03:20	21.8	21.8	21.8	74	14.8	0	0	---	0.00	30.413 
03:25	21.6	21.6	21.6	75	14.9	0	0	---	0.00	30.413 
03:30	21.4	21.4	21.4	75	14.7	0	0	---	0.00	30.404 
03:35	21.3	21.3	21.3	75	14.6	0	0	---	0.00	30.404 
03:40	21.1	21.1	21.1	76	14.7	0	0	---	0.00	30.404 
03:45	21.0	21.0	21.0	76	14.6	0	0	---	0.00	30.404 
03:50	21.0	21.0	21.0	76	14.6	0	0	---	0.00	30.404 
03:55	20.8	20.8	20.8	76	14.5	0	0	---	0.00	30.404 
04:00	20.6	20.6	20.6	76	14.3	0	0	---	0.00	30.400 
04:05	20.5	20.5	20.5	77	14.5	0	0	---	0.00	30.400 
04:10	20.3	20.3	20.3	77	14.3	0	0	---	0.00	30.400 
04:15	20.3	20.3	20.3	77	14.3	0	0	---	0.00	30.402 
04:20	20.3	20.3	20.3	78	14.6	0	0	---	0.00	30.402 
04:25	20.3	20.3	20.3	78	14.6	0	0	---	0.00	30.402 
04:30	20.3	20.3	20.3	78	14.6	0	0	---	0.00	30.393 
04:35	20.5	20.5	20.5	78	14.8	0	0	---	0.00	30.393 
04:40	20.5	20.5	20.5	78	14.8	0	0	---	0.00	30.393 
04:45	20.5	20.5	20.5	78	14.8	0	0	---	0.00	30.391 
04:50	20.6	20.6	20.6	78	14.8	0	0	---	0.00	30.391 
04:55	20.6	20.6	20.6	78	14.8	0	0	---	0.00	30.391 
05:00	20.8	20.8	20.8	78	15.0	0	0	---	0.00	30.391 
05:05	20.8	20.8	20.8	78	15.0	0	0	---	0.00	30.391 
05:10	20.8	20.8	20.8	78	15.0	0	0	---	0.00	30.391 
05:15	20.8	20.8	20.8	78	15.0	0	0	---	0.00	30.389 
05:20	20.6	20.6	20.6	78	14.8	0	0	---	0.00	30.389 
05:25	20.6	20.6	20.6	78	14.8	0	0	---	0.00	30.389 
05:30	20.6	20.6	20.6	79	15.1	0	0	---	0.00	30.386 
05:35	20.8	20.8	20.8	79	15.3	0	0	---	0.00	30.386 
05:40	21.0	21.0	21.0	79	15.5	0	0	---	0.00	30.386 
05:45	21.0	21.0	21.0	79	15.5	0	0	---	0.00	30.387 
05:50	21.1	21.1	21.1	79	15.6	0	0	---	0.00	30.387 
05:55	21.1	21.1	21.1	79	15.6	0	0	---	0.00	30.387 
06:00	21.1	21.1	21.1	79	15.6	0	0	---	0.00	30.392 
06:05	21.1	21.1	21.1	79	15.6	0	0	---	0.00	30.392 
06:10	21.1	21.1	21.1	79	15.6	0	0	---	0.00	30.392 
06:15	21.1	21.1	21.1	79	15.6	0	0	---	0.00	30.389 
06:20	21.3	21.3	21.3	79	15.8	0	0	---	0.00	30.389 
06:25	21.3	21.3	21.3	79	15.8	0	0	---	0.00	30.389 
06:30	21.3	21.3	21.3	79	15.8	0	0	---	0.00	30.388 
06:35	21.4	21.4	21.4	79	15.9	0	0	---	0.00	30.388 
06:40	21.4	21.4	21.4	79	15.9	0	0	---	0.00	30.388 
06:45	21.4	21.4	21.4	79	15.9	0	0	---	0.00	30.387 
06:50	21.6	21.6	21.6	79	16.1	0	1	248	0.00	30.387 
06:55	21.8	21.8	21.8	78	16.0	0	0	---	0.00	30.387 
07:00	21.9	21.9	21.9	78	16.1	0	0	---	0.00	30.385 
07:05	22.1	22.1	22.1	78	16.3	0	1	248	0.00	30.385 
07:10	22.2	22.2	22.2	78	16.4	0	1	248	0.00	30.385 
07:15	22.2	22.2	22.2	78	16.4	0	1	248	0.00	30.371 
07:20	22.4	22.4	22.4	77	16.3	0	0	---	0.00	30.371 
07:25	22.4	22.4	22.4	77	16.3	0	1	248	0.00	30.371 
07:30	22.5	22.5	22.5	77	16.4	0	0	---	0.00	30.362 
07:35	22.7	22.7	22.7	77	16.6	0	1	248	0.00	30.362 
07:40	22.9	22.9	22.9	77	16.8	0	1	248	0.00	30.362 
07:45	23.2	23.2	23.2	77	17.1	0	1	248	0.00	30.356 
07:50	23.5	23.5	23.5	77	17.4	0	1	248	0.00	30.356 
07:55	23.6	23.6	23.6	77	17.5	0	2	248	0.00	30.356 
08:00	24.1	24.1	24.1	76	17.7	0	1	248	0.00	30.353 
08:05	24.2	24.2	24.2	76	17.7	0	1	248	0.00	30.353 
08:10	24.5	24.5	24.5	75	17.7	0	1	248	0.00	30.353 
08:15	24.7	24.7	24.7	75	17.9	0	1	248	0.00	30.347 
08:20	24.8	24.8	24.8	75	18.0	0	1	248	0.00	30.347 
08:25	25.1	25.1	25.1	75	18.3	0	2	248	0.00	30.347 
08:30	25.4	25.4	25.4	74	18.3	0	2	248	0.00	30.339 
08:35	25.8	25.8	25.8	74	18.7	0	1	248	0.00	30.339 
08:40	26.4	26.4	26.4	73	18.9	0	2	248	0.00	30.339 
08:45	27.0	27.0	27.0	72	19.2	0	2	248	0.00	30.332 
08:50	27.5	27.5	27.5	71	19.4	0	2	248	0.00	30.332 
08:55	28.1	28.1	28.1	70	19.6	1	4	90	0.00	30.332 
09:00	28.8	28.8	28.8	69	19.9	0	3	90	0.00	30.332 
09:05	29.4	29.4	29.4	69	20.5	1	3	112	0.00	30.332 
09:10	29.8	29.8	29.8	68	20.5	1	3	112	0.00	30.332 
09:15	30.3	30.3	30.3	67	20.7	1	4	112	0.00	30.316 
09:20	30.7	30.7	30.7	66	20.7	1	4	112	0.00	30.316 
09:25	31.2	31.2	31.2	66	21.2	1	5	112	0.00	30.316 
09:30	31.5	31.5	31.5	65	21.1	1	4	112	0.00	30.312 
09:35	31.9	31.9	31.9	65	21.5	1	5	90	0.00	30.312 
09:40	32.2	32.2	32.2	65	21.8	1	5	112	0.00	30.312 
09:45	32.5	32.5	32.5	65	22.1	2	6	112	0.00	30.305 
09:50	32.9	32.9	32.9	64	22.1	2	6	112	0.00	30.305 
09:55	33.4	33.4	33.4	64	22.6	1	5	90	0.00	30.305 
10:00	33.5	33.5	33.5	64	22.6	2	5	112	0.00	30.297 
10:05	33.8	33.8	33.8	64	22.9	2	10	90	0.00	30.297 
10:10	34.1	34.1	34.1	64	23.2	1	7	112	0.00	30.297 
10:15	34.6	34.6	34.6	64	23.7	1	4	112	0.00	30.310 
10:20	34.9	34.9	34.9	64	24.0	1	3	112	0.00	30.310 
10:25	35.0	35.0	35.0	63	23.7	2	9	112	0.00	30.310 
10:30	35.3	35.3	35.3	63	24.0	1	5	90	0.00	30.305 
10:35	35.5	35.5	35.5	64	24.5	1	3	90	0.00	30.305 
10:40	35.6	35.6	35.6	64	24.6	1	4	90	0.00	30.305 
10:45	35.8	35.8	35.8	63	24.5	2	4	112	0.00	30.297 
10:50	35.9	35.9	35.9	63	24.5	1	5	90	0.00	30.297 
10:55	36.2	36.2	36.2	64	25.2	1	4	90	0.00	30.297 
11:00	36.5	36.5	36.5	64	25.5	1	5	90	0.00	30.283 
11:05	36.8	36.8	36.8	63	25.4	1	6	90	0.00	30.283 
11:10	37.0	37.0	37.0	63	25.6	1	3	112	0.00	30.283 
11:15	37.3	37.3	37.3	63	25.9	1	3	90	0.00	30.282 
11:20	37.5	37.5	37.5	62	25.7	2	7	90	0.00	30.282 
11:25	37.8	37.8	37.8	62	26.0	1	5	90	0.00	30.282 
11:30	37.9	37.9	37.9	62	26.1	1	5	90	0.00	30.274 
11:35	38.2	38.2	38.2	63	26.7	1	5	90	0.00	30.274 
11:40	38.5	38.5	38.5	63	27.0	1	6	68	0.00	30.274 
11:45	39.1	39.1	39.1	62	27.2	2	6	90	0.00	30.257 
11:50	39.6	39.6	39.6	62	27.7	1	3	68	0.00	30.257 
11:55	40.2	40.2	40.2	61	27.8	1	5	68	0.00	30.257 
12:00	40.6	40.6	40.6	60	27.8	1	4	68	0.00	30.240 
12:05	41.1	41.1	41.1	60	28.3	1	4	90	0.00	30.240 
12:10	41.3	41.3	41.3	58	27.7	2	6	45	0.00	30.240 
12:15	41.6	41.6	41.6	58	27.9	1	5	68	0.00	30.225 
12:20	42.1	42.1	42.1	57	28.0	1	3	45	0.00	30.225 
12:25	42.3	42.3	42.3	57	28.2	1	6	45	0.00	30.225 
12:30	42.6	42.6	42.6	56	28.0	1	5	68	0.00	30.212 
12:35	42.9	42.9	42.9	55	27.9	1	5	90	0.00	30.212 
12:40	43.2	43.2	43.2	55	28.1	1	4	45	0.00	30.212 
12:45	43.5	43.5	43.5	54	28.0	1	6	68	0.00	30.207 
12:50	43.6	43.6	43.6	53	27.6	2	6	68	0.00	30.207 
12:55	43.9	43.9	43.9	52	27.4	1	3	292	0.00	30.207 
13:00	44.1	44.1	44.1	53	28.1	0	3	90	0.00	30.206 
13:05	44.2	44.2	44.2	52	27.7	1	4	68	0.00	30.206 
13:10	44.3	44.3	44.3	51	27.3	1	6	68	0.00	30.206 
13:15	44.3	44.3	44.3	52	27.8	1	6	248	0.00	30.196 
13:20	44.3	44.3	44.3	52	27.8	1	5	90	0.00	30.196 
13:25	44.3	44.3	44.3	52	27.8	1	3	338	0.00	30.196 
13:30	44.5	44.5	44.5	51	27.5	1	6	68	0.00	30.187 
13:35	44.5	44.5	44.5	51	27.5	1	6	68	0.00	30.187 
13:40	44.6	44.6	44.6	51	27.6	1	3	68	0.00	30.187 
13:45	44.8	44.8	44.8	50	27.3	1	4	68	0.00	30.182 
13:50	45.1	45.1	45.1	50	27.6	0	3	68	0.00	30.182 
13:55	45.2	45.2	45.2	49	27.2	1	4	68	0.00	30.182 
14:00	45.4	45.4	45.4	49	27.4	1	4	270	0.00	30.170 
14:05	45.5	45.5	45.5	47	26.5	1	4	270	0.00	30.170 
14:10	45.5	45.5	45.5	48	27.0	0	4	45	0.00	30.170 
14:15	45.7	45.7	45.7	47	26.6	1	5	68	0.00	30.158 
14:20	45.8	45.8	45.8	46	26.2	1	9	90	0.00	30.158 
14:25	45.8	45.8	45.8	47	26.7	1	5	112	0.00	30.158 
14:30	46.0	46.0	46.0	46	26.4	2	6	68	0.00	30.148 
14:35	46.1	46.1	46.1	46	26.5	2	4	68	0.00	30.148 
14:40	46.2	46.2	46.2	46	26.6	1	7	0	0.00	30.148 
14:45	46.2	46.2	46.2	45	26.0	1	5	270	0.00	30.147 
14:50	46.4	46.4	46.4	45	26.2	1	9	112	0.00	30.147 
14:55	46.5	46.5	46.5	46	26.8	1	4	90	0.00	30.147 
15:00	46.7	46.7	46.7	45	26.5	1	5	90	0.00	30.131 
15:05	46.7	46.7	46.7	44	26.0	1	4	45	0.00	30.131 
15:10	46.8	46.8	46.8	43	25.5	1	4	90	0.00	30.131 
15:15	47.0	47.0	47.0	43	25.7	1	8	112	0.00	30.133 
15:20	47.0	47.0	47.0	43	25.7	1	3	135	0.00	30.133 
15:25	46.8	46.8	46.8	42	24.9	1	6	68	0.00	30.133 
15:30	46.8	46.8	46.8	42	24.9	1	5	112	0.00	30.125 
15:35	46.5	46.5	46.5	42	24.7	1	6	22	0.00	30.125 
15:40	46.4	46.4	46.4	42	24.6	1	7	0	0.00	30.125 
15:45	46.4	46.4	46.4	43	25.1	1	7	112	0.00	30.119 
15:50	46.2	46.2	46.2	43	25.0	1	7	112	0.00	30.119 
15:55	46.1	46.1	46.1	44	25.4	1	6	90	0.00	30.119 
16:00	46.0	46.0	46.0	45	25.9	2	6	90	0.00	30.117 
16:05	45.8	45.8	45.8	45	25.7	1	7	112	0.00	30.117 
16:10	45.7	45.7	45.7	46	26.1	2	4	68	0.00	30.117 
16:15	45.5	45.5	45.5	46	25.9	2	6	90	0.00	30.112 
16:20	45.4	45.4	45.4	46	25.8	2	6	90	0.00	30.112 
16:25	45.2	45.2	45.2	46	25.7	1	5	90	0.00	30.112 
16:30	45.1	45.1	45.1	46	25.6	1	5	112	0.00	30.113 
16:35	45.1	45.1	45.1	47	26.1	1	6	90	0.00	30.113 
16:40	44.9	44.9	44.9	47	25.9	2	4	90	0.00	30.113 
16:45	44.9	44.9	44.9	47	25.9	2	6	112	0.00	30.105 
16:50	44.8	44.8	44.8	48	26.3	2	5	45	0.00	30.105 
16:55	44.6	44.6	44.6	49	26.6	1	4	90	0.00	30.105 
17:00	44.5	44.5	44.5	49	26.5	1	7	90	0.00	30.101 
17:05	44.3	44.3	44.3	49	26.4	1	4	90	0.00	30.101 
17:10	44.3	44.3	44.3	48	25.9	1	6	112	0.00	30.101 
17:15	44.2	44.2	44.2	48	25.8	2	6	112	0.00	30.103 
17:20	44.3	44.3	44.3	48	25.9	2	6	90	0.00	30.103 
17:25	44.2	44.2	44.2	49	26.3	1	5	90	0.00	30.103 
17:30	44.1	44.1	44.1	50	26.7	2	5	90	0.00	30.097 
17:35	43.9	43.9	43.9	50	26.5	1	4	90	0.00	30.097 
17:40	43.9	43.9	43.9	50	26.5	2	6	90	0.00	30.097 
17:45	43.8	43.8	43.8	50	26.4	2	6	90	0.00	30.096 
17:50	43.6	43.6	43.6	51	26.7	2	5	68	0.00	30.096 
17:55	43.6	43.6	43.6	51	26.7	3	11	90	0.00	30.096 
18:00	43.6	43.6	43.6	51	26.7	1	6	90	0.00	30.094 
18:05	43.5	43.5	43.5	52	27.1	2	9	68	0.00	30.094 
18:10	43.3	43.3	43.3	52	26.9	2	4	90	0.00	30.094 
18:15	43.5	43.5	43.5	52	27.1	3	6	90	0.00	30.086 
18:20	43.3	43.3	43.3	53	27.3	2	5	90	0.00	30.086 
18:25	43.3	43.3	43.3	52	26.9	3	11	90	0.00	30.086 
18:30	43.5	43.5	43.5	52	27.1	2	7	68	0.00	30.092 
18:35	43.3	43.3	43.3	52	26.9	1	6	90	0.00	30.092 
18:40	43.3	43.3	43.3	52	26.9	1	4	90	0.00	30.092 
18:45	43.2	43.2	43.2	52	26.8	2	9	90	0.00	30.091 
18:50	43.2	43.2	43.2	52	26.8	1	9	90	0.00	30.091 
18:55	43.1	43.1	43.1	52	26.7	2	7	90	0.00	30.091 
19:00	42.9	42.9	42.9	52	26.5	2	6	90	0.00	30.086 
19:05	42.6	42.6	42.6	53	26.7	2	4	90	0.00	30.086 
19:10	42.5	42.5	42.5	54	27.0	2	6	90	0.00	30.086 
19:15	42.3	42.3	42.3	54	26.9	1	5	68	0.00	30.082 
19:20	42.2	42.2	42.2	54	26.8	2	6	112	0.00	30.082 
19:25	42.1	42.1	42.1	54	26.7	1	4	112	0.00	30.082 
19:30	41.9	41.9	41.9	55	26.9	1	5	90	0.00	30.076 
19:35	41.9	41.9	41.9	55	26.9	1	4	68	0.00	30.076 
19:40	41.9	41.9	41.9	56	27.4	1	3	90	0.00	30.076 
19:45	41.8	41.8	41.8	56	27.3	1	5	90	0.00	30.081 
19:50	41.8	41.8	41.8	56	27.3	1	4	90	0.00	30.081 
19:55	41.6	41.6	41.6	56	27.1	2	5	90	0.00	30.081 
20:00	41.6	41.6	41.6	56	27.1	2	6	90	0.00	30.070 
20:05	41.6	41.6	41.6	56	27.1	2	5	90	0.00	30.070 
20:10	41.6	41.6	41.6	56	27.1	1	4	90	0.00	30.070 
20:15	41.6	41.6	41.6	56	27.1	1	5	90	0.00	30.066 
20:20	41.6	41.6	41.6	56	27.1	1	9	90	0.00	30.066 
20:25	41.8	41.8	41.8	55	26.8	1	9	90	0.00	30.066 
20:30	41.9	41.9	41.9	55	26.9	1	3	90	0.00	30.066 
20:35	42.1	42.1	42.1	55	27.1	1	6	45	0.00	30.066 
20:40	42.2	42.2	42.2	55	27.2	1	10	90	0.00	30.066 
20:45	42.3	42.3	42.3	54	26.9	1	4	112	0.00	30.057 
20:50	42.3	42.3	42.3	54	26.9	1	4	90	0.00	30.057 
20:55	42.3	42.3	42.3	54	26.9	2	4	68	0.00	30.057 
21:00	42.5	42.5	42.5	54	27.0	1	4	90	0.00	30.055 
21:05	42.5	42.5	42.5	54	27.0	1	6	68	0.00	30.055 
21:10	42.3	42.3	42.3	55	27.3	1	4	68	0.00	30.055 
21:15	42.3	42.3	42.3	55	27.3	2	6	112	0.00	30.043 
21:20	42.3	42.3	42.3	55	27.3	1	4	68	0.00	30.043 
21:25	42.3	42.3	42.3	55	27.3	1	4	68	0.00	30.043 
21:30	42.3	42.3	42.3	55	27.3	1	4	45	0.00	30.045 
21:35	42.3	42.3	42.3	55	27.3	0	4	45	0.00	30.045 
21:40	42.2	42.2	42.2	55	27.2	0	2	68	0.00	30.045 
21:45	42.2	42.2	42.2	55	27.2	0	3	112	0.00	30.043 
21:50	42.3	42.3	42.3	55	27.3	1	5	45	0.00	30.043 
21:55	42.3	42.3	42.3	55	27.3	1	4	90	0.00	30.043 
22:00	42.5	42.5	42.5	54	27.0	1	4	68	0.00	30.032 
22:05	42.5	42.5	42.5	54	27.0	2	4	90	0.00	30.032 
22:10	42.5	42.5	42.5	54	27.0	1	6	90	0.00	30.032 
22:15	42.6	42.6	42.6	54	27.1	2	6	112	0.00	30.024 
22:20	42.6	42.6	42.6	54	27.1	2	4	90	0.00	30.024 
22:25	42.8	42.8	42.8	54	27.3	1	4	90	0.00	30.024 
22:30	42.9	42.9	42.9	54	27.4	1	5	90	0.00	30.012 
22:35	42.9	42.9	42.9	53	27.0	1	6	90	0.00	30.012 
22:40	43.1	43.1	43.1	53	27.1	1	4	68	0.00	30.012 
22:45	43.1	43.1	43.1	53	27.1	1	6	68	0.00	30.011 
22:50	43.2	43.2	43.2	53	27.2	1	3	68	0.00	30.011 
22:55	43.3	43.3	43.3	53	27.3	1	7	90	0.00	30.011 
23:00	43.3	43.3	43.3	52	26.9	1	6	90	0.00	30.004 
23:05	43.5	43.5	43.5	52	27.1	1	4	90	0.00	30.004 
23:10	43.6	43.6	43.6	52	27.1	1	4	112	0.00	30.004 
23:15	43.8	43.8	43.8	51	26.9	1	3	0	0.00	30.003 
23:20	43.9	43.9	43.9	51	27.0	0	2	292	0.00	30.003 
23:25	44.1	44.1	44.1	50	26.7	1	5	90	0.00	30.003 
23:30	44.5	44.5	44.5	50	27.0	1	4	68	0.00	29.998 
23:35	44.9	44.9	44.9	49	26.9	1	5	248	0.00	29.998 
23:40	45.2	45.2	45.2	49	27.2	1	7	270	0.00	29.998 
23:45	45.4	45.4	45.4	48	26.9	1	4	248	0.00	29.995 
23:50	45.5	45.5	45.5	48	27.0	0	4	112	0.00	29.995 
23:55	45.7	45.7	45.7	47	26.6	1	4	90	0.00	29.995 

CoCoRaHS
IN-AL-39
A2 Web Hosting
Creative Commons License
GoDaddy
search engine by freefind advanced

loaded 2018-11-15 05:40:13 • last modified 2010-11-18 10:43:29
Privacy PolicyDisclaimer
• wx.awcolley.com is powered by PmWiki v.2002016 •
• all content (unless otherwise noted) © 2018 A W Colley